createdAt,value
2018-04-02T00:03:03.414Z,51.50
2018-04-02T00:07:06.710Z,51.97
2018-04-02T00:11:09.240Z,51.23
2018-04-02T00:15:11.773Z,48.47
2018-04-02T00:19:14.297Z,47.87
2018-04-02T00:23:16.849Z,47.40
2018-04-02T00:27:20.154Z,47.63
2018-04-02T00:31:23.461Z,50.73
2018-04-02T00:35:26.761Z,44.93
2018-04-02T00:39:30.070Z,46.03
2018-04-02T00:43:32.581Z,46.50
2018-04-02T00:47:35.885Z,45.27
2018-04-02T00:51:38.852Z,48.90
2018-04-02T00:55:42.161Z,46.77
2018-04-02T00:59:45.462Z,48.10
2018-04-02T01:03:48.732Z,39.73
2018-04-02T01:07:51.265Z,39.87
2018-04-02T01:11:53.834Z,39.53
2018-04-02T01:15:57.145Z,42.47
2018-04-02T01:19:59.678Z,41.63
2018-04-02T01:24:02.233Z,40.17
2018-04-02T01:28:04.757Z,38.40
2018-04-02T01:32:07.294Z,37.60
2018-04-02T01:36:09.825Z,40.33
2018-04-02T01:40:12.358Z,37.70
2018-04-02T01:44:14.897Z,39.87
2018-04-02T01:48:17.412Z,42.13
2018-04-02T01:52:20.712Z,42.80
2018-04-02T01:56:24.026Z,42.73
2018-04-02T02:00:27.321Z,40.27
2018-04-02T02:04:30.957Z,42.20
2018-04-02T02:08:33.469Z,43.27
2018-04-02T02:12:36.006Z,44.43
2018-04-02T02:16:39.304Z,46.80
2018-04-02T02:20:42.611Z,50.10
2018-04-02T02:24:45.911Z,49.37
2018-04-02T02:28:49.189Z,46.70
2018-04-02T02:32:51.722Z,46.70
2018-04-02T02:36:54.261Z,47.17
2018-04-02T02:40:56.796Z,51.43
2018-04-02T02:44:59.332Z,50.90
2018-04-02T02:49:01.860Z,49.73
2018-04-02T02:53:04.390Z,51.53
2018-04-02T02:57:06.925Z,48.23
2018-04-02T03:01:09.469Z,46.90
2018-04-02T03:05:12.014Z,48.93
2018-04-02T03:09:14.531Z,50.97
2018-04-02T03:13:17.069Z,50.07
2018-04-02T03:17:19.596Z,52.47
2018-04-02T03:21:22.124Z,55.40
2018-04-02T03:25:24.667Z,55.47
2018-04-02T03:29:27.182Z,55.87
2018-04-02T03:33:30.562Z,56.53
2018-04-02T03:37:33.092Z,60.00
2018-04-02T03:41:35.623Z,55.03
2018-04-02T03:45:38.939Z,54.97
2018-04-02T03:49:41.465Z,54.70
2018-04-02T03:53:44.006Z,55.50
2018-04-02T03:57:46.541Z,55.90
2018-04-02T04:01:49.090Z,56.13
2018-04-02T04:05:52.386Z,56.57
2018-04-02T04:09:55.696Z,57.73
2018-04-02T04:13:58.985Z,59.20
2018-04-02T04:18:01.513Z,55.50
2018-04-02T04:22:04.045Z,58.97
2018-04-02T04:26:06.578Z,57.57
2018-04-02T04:30:09.114Z,60.13
2018-04-02T04:34:11.627Z,60.03
2018-04-02T04:38:14.928Z,60.63
2018-04-02T04:42:18.225Z,63.13
2018-04-02T04:46:21.525Z,63.40
2018-04-02T04:50:24.057Z,63.00
2018-04-02T04:54:26.585Z,65.47
2018-04-02T04:58:29.116Z,64.93
2018-04-02T05:02:31.657Z,67.33
2018-04-02T05:06:34.193Z,64.80
2018-04-02T05:10:36.722Z,65.40
2018-04-02T05:14:39.634Z,63.60
2018-04-02T05:18:42.169Z,65.07
2018-04-02T05:22:44.711Z,63.63
2018-04-02T05:26:48.014Z,65.70
2018-04-02T05:30:51.313Z,66.37
2018-04-02T05:34:53.851Z,65.00
2018-04-02T05:38:56.381Z,66.30
2018-04-02T05:42:59.675Z,69.13
2018-04-02T05:47:02.217Z,68.13
2018-04-02T05:51:04.799Z,68.60
2018-04-02T05:55:07.289Z,63.50
2018-04-02T05:59:09.820Z,64.03
2018-04-02T06:03:13.113Z,64.20
2018-04-02T06:07:15.649Z,63.00
2018-04-02T06:11:18.190Z,62.87
2018-04-02T06:15:21.480Z,60.30
2018-04-02T06:19:24.013Z,59.20
2018-04-02T06:23:26.597Z,58.30
2018-04-02T06:27:29.113Z,58.83
2018-04-02T06:31:31.687Z,57.37
2018-04-02T06:35:34.169Z,57.00
2018-04-02T06:39:36.706Z,57.77
2018-04-02T06:43:39.242Z,57.57
2018-04-02T06:47:41.777Z,55.93
2018-04-02T06:51:44.310Z,59.57
2018-04-02T06:55:46.834Z,54.53
2018-04-02T06:59:50.144Z,52.13
2018-04-02T07:03:53.441Z,56.87
2018-04-02T07:07:56.746Z,53.57
2018-04-02T07:12:00.060Z,53.80
2018-04-02T07:16:03.367Z,57.57
2018-04-02T07:20:06.651Z,57.47
2018-04-02T07:24:09.971Z,55.60
2018-04-02T07:28:13.276Z,54.73
2018-04-02T07:32:15.808Z,53.97
2018-04-02T07:36:18.344Z,53.83
2018-04-02T07:40:21.628Z,53.33
2018-04-02T07:44:24.228Z,54.17
2018-04-02T07:48:26.720Z,52.17
2018-04-02T07:52:29.258Z,51.83
2018-04-02T07:56:31.797Z,54.80
2018-04-02T08:00:34.313Z,52.50
2018-04-02T08:04:36.862Z,53.03
2018-04-02T08:08:39.435Z,54.13
2018-04-02T08:12:41.948Z,54.20
2018-04-02T08:16:44.481Z,53.53
2018-04-02T08:20:47.000Z,53.27
2018-04-02T08:24:49.541Z,50.27
2018-04-02T08:28:52.080Z,49.43
2018-04-02T08:32:54.614Z,48.30
2018-04-02T08:36:57.155Z,47.13
2018-04-02T08:40:59.677Z,49.73
2018-04-02T08:45:02.214Z,50.63
2018-04-02T08:49:06.397Z,47.17
2018-04-02T08:53:10.593Z,51.37
2018-04-02T08:57:14.781Z,51.13
2018-04-02T09:01:18.953Z,56.70
2018-04-02T09:05:23.141Z,56.17
2018-04-02T09:09:27.325Z,59.83
2018-04-02T09:13:31.518Z,61.53
2018-04-02T09:17:35.708Z,55.13
2018-04-02T09:21:39.909Z,62.57
2018-04-02T09:25:44.077Z,62.07
2018-04-02T09:29:48.264Z,66.83
2018-04-02T09:33:52.468Z,66.37
2018-04-02T09:37:56.656Z,68.33
2018-04-02T09:42:00.864Z,66.97
2018-04-02T09:46:05.052Z,64.73
2018-04-02T09:50:09.236Z,65.20
2018-04-02T09:54:13.472Z,64.60
2018-04-02T09:58:17.639Z,66.47
2018-04-02T10:02:21.837Z,65.73
2018-04-02T10:06:26.009Z,65.13
2018-04-02T10:10:30.216Z,67.00
2018-04-02T10:14:34.399Z,65.77
2018-04-02T10:18:38.584Z,62.83
2018-04-02T10:22:42.823Z,60.27
2018-04-02T10:26:46.962Z,61.60
2018-04-02T10:30:51.147Z,59.70
2018-04-02T10:34:55.388Z,59.23
2018-04-02T10:38:59.545Z,54.27
2018-04-02T10:43:03.734Z,56.50
2018-04-02T10:47:07.926Z,56.60
2018-04-02T10:51:12.098Z,50.93
2018-04-02T10:55:16.288Z,50.80
2018-04-02T10:59:20.491Z,54.30
2018-04-02T11:03:24.676Z,53.67
2018-04-02T11:07:29.337Z,55.67
2018-04-02T11:11:33.497Z,54.27
2018-04-02T11:15:37.693Z,52.83
2018-04-02T11:19:41.897Z,53.23
2018-04-02T11:23:46.101Z,52.60
2018-04-02T11:27:50.297Z,50.33
2018-04-02T11:31:54.474Z,47.37
2018-04-02T11:35:58.664Z,46.73
2018-04-02T11:40:02.847Z,45.37
2018-04-02T11:44:07.052Z,43.70
2018-04-02T11:48:11.245Z,42.20
2018-04-02T11:52:15.425Z,43.73
2018-04-02T11:56:19.614Z,43.20
2018-04-02T12:00:23.801Z,41.87
2018-04-02T12:04:27.981Z,40.43
2018-04-02T12:08:32.180Z,38.50
2018-04-02T12:12:36.364Z,34.70
2018-04-02T12:16:40.533Z,37.87
2018-04-02T12:20:44.719Z,36.37
2018-04-02T12:24:48.903Z,33.50
2018-04-02T12:28:53.091Z,31.30
2018-04-02T12:32:57.277Z,32.63
2018-04-02T12:37:01.441Z,31.47
2018-04-02T12:41:05.631Z,30.60
2018-04-02T12:45:09.811Z,29.13
2018-04-02T12:49:14.019Z,28.27
2018-04-02T12:53:18.210Z,27.70
2018-04-02T12:57:22.375Z,26.13
2018-04-02T13:01:26.565Z,26.50
2018-04-02T13:05:30.752Z,25.97
2018-04-02T13:09:34.949Z,26.23
2018-04-02T13:13:39.144Z,25.43
2018-04-02T13:17:44.187Z,26.63
2018-04-02T13:21:48.357Z,23.47
2018-04-02T13:25:52.569Z,24.37
2018-04-02T13:29:56.780Z,22.43
2018-04-02T13:34:00.960Z,23.20
2018-04-02T13:38:05.150Z,22.80
2018-04-02T13:42:09.320Z,21.20
2018-04-02T13:46:13.504Z,21.93
2018-04-02T13:50:17.689Z,22.10
2018-04-02T13:54:21.872Z,22.37
2018-04-02T13:58:26.057Z,23.33
2018-04-02T14:02:30.219Z,22.97
2018-04-02T14:06:34.410Z,21.73
2018-04-02T14:10:38.600Z,21.83
2018-04-02T14:14:42.803Z,20.73
2018-04-02T14:18:46.998Z,21.30
2018-04-02T14:22:51.159Z,19.30
2018-04-02T14:26:55.348Z,19.53
2018-04-02T14:30:59.532Z,19.17
2018-04-02T14:35:03.732Z,19.67
2018-04-02T14:39:07.916Z,19.10
2018-04-02T14:43:12.101Z,18.17
2018-04-02T14:47:16.264Z,18.50
2018-04-02T14:51:20.470Z,18.07
2018-04-02T14:55:24.669Z,18.27
2018-04-02T14:59:28.868Z,17.67
2018-04-02T15:03:33.060Z,17.37
2018-04-02T15:07:37.224Z,17.77
2018-04-02T15:15:54.034Z,18.60
2018-04-02T15:19:58.216Z,17.77
2018-04-02T15:24:02.399Z,19.07
2018-04-02T15:28:06.562Z,18.50
2018-04-02T15:32:10.759Z,18.03
2018-04-02T15:36:14.947Z,17.23
2018-04-02T15:40:19.133Z,18.13
2018-04-02T15:44:23.326Z,18.67
2018-04-02T15:48:27.527Z,17.30
2018-04-02T15:52:31.735Z,17.77
2018-04-02T15:56:35.925Z,17.67
2018-04-02T16:00:40.108Z,16.30
2018-04-02T16:04:44.315Z,16.40
2018-04-02T16:08:48.500Z,16.03
2018-04-02T16:12:52.671Z,15.37
2018-04-02T16:16:56.923Z,15.43
2018-04-02T16:21:01.122Z,16.60
2018-04-02T16:25:05.307Z,16.40
2018-04-02T16:29:09.503Z,13.90
2018-04-02T16:33:13.666Z,15.30
2018-04-02T16:37:17.848Z,15.73
2018-04-02T16:41:22.049Z,14.40
2018-04-02T16:45:26.847Z,14.70
2018-04-02T16:49:31.040Z,14.27
2018-04-02T16:53:35.199Z,13.80
2018-04-02T16:57:39.384Z,14.27
2018-04-02T17:01:43.571Z,14.03
2018-04-02T17:05:47.760Z,14.37
2018-04-02T17:09:51.946Z,13.47
2018-04-02T17:13:56.107Z,14.30
2018-04-02T17:18:00.298Z,13.27
2018-04-02T17:22:04.482Z,13.73
2018-04-02T17:26:08.663Z,12.70
2018-04-02T17:30:12.852Z,12.57
2018-04-02T17:34:17.032Z,12.63
2018-04-02T17:38:21.567Z,13.50
2018-04-02T17:42:25.758Z,13.13
2018-04-02T17:46:29.963Z,13.50
2018-04-02T17:50:34.141Z,13.43
2018-04-02T17:54:38.350Z,12.87
2018-04-02T17:58:42.534Z,13.27
2018-04-02T18:02:46.762Z,12.10
2018-04-02T18:06:50.951Z,12.37
2018-04-02T18:10:55.130Z,12.17
2018-04-02T18:14:59.317Z,11.27
2018-04-02T18:19:03.500Z,11.80
2018-04-02T18:23:07.689Z,11.87
2018-04-02T18:27:11.875Z,11.13
2018-04-02T18:31:16.060Z,10.43
2018-04-02T18:35:20.248Z,10.13
2018-04-02T18:39:24.575Z,11.00
2018-04-02T18:43:28.796Z,10.57
2018-04-02T18:47:32.977Z,10.60
2018-04-02T18:51:37.156Z,14.10
2018-04-02T18:55:41.361Z,12.33
2018-04-02T18:59:45.524Z,11.80
2018-04-02T19:03:50.150Z,12.10
2018-04-02T19:07:54.587Z,11.27
2018-04-02T19:11:58.833Z,10.50
2018-04-02T19:16:03.015Z,10.73
2018-04-02T19:20:07.205Z,11.90
2018-04-02T19:24:11.362Z,11.70
2018-04-02T19:28:15.583Z,11.97
2018-04-02T19:32:19.753Z,10.80
2018-04-02T19:36:24.098Z,11.57
2018-04-02T19:40:28.729Z,11.30
2018-04-02T19:44:32.896Z,11.53
2018-04-02T19:48:37.079Z,10.13
2018-04-02T19:52:41.270Z,9.07
2018-04-02T19:56:45.939Z,9.37
2018-04-02T20:00:50.009Z,8.47
2018-04-02T20:04:54.285Z,7.90
2018-04-02T20:08:58.477Z,7.23
2018-04-02T20:13:02.661Z,7.33
2018-04-02T20:17:07.318Z,6.83
2018-04-02T20:21:11.752Z,6.20
2018-04-02T20:25:15.944Z,6.10
2018-04-02T20:29:20.212Z,6.53
2018-04-02T20:33:24.557Z,5.77
2018-04-02T20:37:28.800Z,5.97
2018-04-02T20:41:32.985Z,5.57
2018-04-02T20:45:37.253Z,6.30
2018-04-02T20:49:41.454Z,5.33
2018-04-02T20:55:07.445Z,5.13
2018-04-02T20:59:11.653Z,5.07
2018-04-02T21:03:15.828Z,5.30
2018-04-02T21:07:20.004Z,5.63
2018-04-02T21:11:24.204Z,6.32
2018-04-02T21:15:28.368Z,5.83
2018-04-02T21:19:35.674Z,5.77
2018-04-02T21:23:39.940Z,5.50
2018-04-02T21:27:44.145Z,5.60
2018-04-02T21:31:48.324Z,6.23
2018-04-02T21:35:52.476Z,5.60
2018-04-02T21:39:56.684Z,5.27
2018-04-02T21:44:00.860Z,5.27
2018-04-02T21:48:05.053Z,5.33
2018-04-02T21:52:09.245Z,5.67
2018-04-02T21:56:13.398Z,5.80
2018-04-02T22:00:17.574Z,5.70
2018-04-02T22:04:21.744Z,6.03
2018-04-02T22:08:26.026Z,5.47
2018-04-02T22:12:30.208Z,6.07
2018-04-02T22:16:34.405Z,5.77
2018-04-02T22:20:38.575Z,5.93
2018-04-02T22:24:42.758Z,5.70
2018-04-02T22:28:46.929Z,6.17
2018-04-02T22:32:49.465Z,6.17
2018-04-02T22:36:52.023Z,5.00
2018-04-02T22:40:55.305Z,5.13
2018-04-02T22:44:57.867Z,5.50
2018-04-02T22:53:07.871Z,5.47
2018-04-02T22:57:10.397Z,5.60
2018-04-02T23:01:12.909Z,5.47
2018-04-02T23:05:15.449Z,5.47
2018-04-02T23:09:18.737Z,5.50
2018-04-02T23:13:21.384Z,5.30
2018-04-02T23:17:23.913Z,5.57
2018-04-02T23:21:26.420Z,5.57
2018-04-02T23:25:28.963Z,5.10
2018-04-02T23:29:31.487Z,5.47
2018-04-02T23:33:34.789Z,5.37
2018-04-02T23:37:38.081Z,5.57
2018-04-02T23:41:41.358Z,5.47
2018-04-02T23:45:43.885Z,5.93
2018-04-02T23:49:46.423Z,5.77
2018-04-02T23:53:48.962Z,5.57
2018-04-02T23:57:51.486Z,5.00
